createdAt,value
2022-07-26T00:00:12.464Z,8.35
2022-07-26T00:02:47.358Z,8.65
2022-07-26T00:05:18.813Z,9.60
2022-07-26T00:07:47.133Z,8.00
2022-07-26T00:10:15.958Z,8.00
2022-07-26T00:12:44.070Z,6.68
2022-07-26T00:15:13.028Z,7.35
2022-07-26T00:17:41.108Z,9.20
2022-07-26T00:20:10.336Z,7.65
2022-07-26T00:22:41.616Z,8.48
2022-07-26T00:25:10.922Z,8.40
2022-07-26T00:27:39.045Z,8.23
2022-07-26T00:30:10.222Z,8.82
2022-07-26T00:32:39.008Z,8.40
2022-07-26T00:35:08.052Z,9.07
2022-07-26T00:37:36.120Z,7.90
2022-07-26T00:40:07.091Z,9.32
2022-07-26T00:42:37.514Z,9.15
2022-07-26T00:45:07.941Z,8.82
2022-07-26T00:47:36.761Z,8.20
2022-07-26T00:50:08.228Z,8.43
2022-07-26T00:52:36.604Z,8.48
2022-07-26T00:55:07.586Z,8.93
2022-07-26T00:57:37.393Z,8.80
2022-07-26T01:00:09.324Z,8.43
2022-07-26T01:02:37.431Z,10.57
2022-07-26T01:05:07.071Z,8.55
2022-07-26T01:07:36.210Z,8.23
2022-07-26T01:10:12.359Z,7.57
2022-07-26T01:12:41.644Z,8.25
2022-07-26T01:15:12.921Z,7.10
2022-07-26T01:17:41.295Z,9.57
2022-07-26T01:20:13.617Z,8.48
2022-07-26T01:22:43.099Z,7.32
2022-07-26T01:25:11.717Z,8.30
2022-07-26T01:27:40.202Z,7.20
2022-07-26T01:30:12.707Z,8.27
2022-07-26T01:32:40.892Z,8.63
2022-07-26T01:35:09.861Z,8.27
2022-07-26T01:37:37.975Z,8.38
2022-07-26T01:40:10.292Z,9.05
2022-07-26T01:42:40.719Z,9.05
2022-07-26T01:45:10.233Z,8.75
2022-07-26T01:47:39.031Z,12.40
2022-07-26T01:50:09.400Z,9.90
2022-07-26T01:52:39.158Z,8.10
2022-07-26T01:55:09.609Z,9.43
2022-07-26T01:57:37.845Z,8.20
2022-07-26T02:00:07.686Z,8.00
2022-07-26T02:02:36.367Z,7.32
2022-07-26T02:05:04.990Z,8.00
2022-07-26T02:07:39.089Z,7.95
2022-07-26T02:10:12.145Z,8.38
2022-07-26T02:12:40.967Z,7.82
2022-07-26T02:15:11.102Z,8.50
2022-07-26T02:17:39.263Z,9.35
2022-07-26T02:20:10.348Z,9.65
2022-07-26T02:22:38.407Z,8.35
2022-07-26T02:25:08.892Z,8.65
2022-07-26T02:27:37.062Z,8.43
2022-07-26T02:30:06.083Z,8.65
2022-07-26T02:32:34.147Z,8.73
2022-07-26T02:35:02.248Z,8.52
2022-07-26T02:37:30.482Z,8.63
2022-07-26T02:40:05.626Z,9.73
2022-07-26T02:42:35.212Z,8.57
2022-07-26T02:45:03.306Z,8.90
2022-07-26T02:47:32.909Z,9.13
2022-07-26T02:50:01.037Z,10.57
2022-07-26T02:52:29.171Z,9.27
2022-07-26T02:54:58.053Z,9.00
2022-07-26T02:57:26.099Z,9.10
2022-07-26T02:59:55.515Z,8.75
2022-07-26T03:02:23.692Z,8.27
2022-07-26T03:04:51.771Z,10.65
2022-07-26T03:07:19.797Z,8.30
2022-07-26T03:09:47.967Z,7.70
2022-07-26T03:12:16.000Z,8.07
2022-07-26T03:14:44.068Z,8.70
2022-07-26T03:17:13.542Z,8.60
2022-07-26T03:19:41.657Z,7.15
2022-07-26T03:22:09.789Z,6.15
2022-07-26T03:24:37.987Z,6.25
2022-07-26T03:27:06.415Z,10.30
2022-07-26T03:29:34.513Z,7.25
2022-07-26T03:32:02.525Z,6.50
2022-07-26T03:34:31.995Z,6.80
2022-07-26T03:37:00.156Z,6.68
2022-07-26T03:39:28.312Z,7.78
2022-07-26T03:41:56.425Z,6.40
2022-07-26T03:44:24.513Z,8.35
2022-07-26T03:46:52.561Z,7.85
2022-07-26T03:49:20.813Z,6.85
2022-07-26T03:51:51.128Z,10.45
2022-07-26T03:54:19.208Z,5.72
2022-07-26T03:56:46.323Z,8.63
2022-07-26T03:59:14.451Z,7.47
2022-07-26T04:01:43.516Z,6.40
2022-07-26T04:04:13.840Z,6.30
2022-07-26T04:06:42.706Z,6.18
2022-07-26T04:09:13.284Z,7.05
2022-07-26T04:11:42.549Z,9.30
2022-07-26T04:14:11.682Z,5.80
2022-07-26T04:16:43.626Z,9.68
2022-07-26T04:19:12.376Z,7.47
2022-07-26T04:21:40.736Z,6.13
2022-07-26T04:24:10.494Z,7.38
2022-07-26T04:26:40.204Z,6.40
2022-07-26T04:29:08.359Z,5.38
2022-07-26T04:31:39.130Z,7.70
2022-07-26T04:34:07.455Z,8.48
2022-07-26T04:36:35.798Z,6.10
2022-07-26T04:39:03.955Z,4.70
2022-07-26T04:41:32.057Z,4.30
2022-07-26T04:44:01.531Z,7.75
2022-07-26T04:46:29.634Z,4.90
2022-07-26T04:48:57.730Z,8.02
2022-07-26T04:51:26.439Z,7.40
2022-07-26T04:53:54.511Z,5.63
2022-07-26T04:56:22.474Z,6.25
2022-07-26T04:58:50.520Z,5.40
2022-07-26T05:01:19.935Z,8.10
2022-07-26T05:03:48.034Z,4.93
2022-07-26T05:06:16.102Z,6.22
2022-07-26T05:08:44.180Z,5.35
2022-07-26T05:11:12.184Z,5.72
2022-07-26T05:13:40.214Z,5.00
2022-07-26T05:16:11.733Z,7.88
2022-07-26T05:18:48.799Z,6.05
2022-07-26T05:21:18.467Z,5.95
2022-07-26T05:23:46.603Z,5.80
2022-07-26T05:26:14.866Z,4.88
2022-07-26T05:28:43.234Z,3.55
2022-07-26T05:31:11.330Z,5.53
2022-07-26T05:33:40.772Z,7.53
2022-07-26T05:36:09.544Z,5.60
2022-07-26T05:38:38.406Z,4.10
2022-07-26T05:41:07.738Z,5.80
2022-07-26T05:43:41.103Z,4.80
2022-07-26T05:46:11.546Z,5.15
2022-07-26T05:48:41.416Z,4.13
2022-07-26T05:51:10.063Z,4.63
2022-07-26T05:53:39.046Z,7.85
2022-07-26T05:56:08.298Z,3.28
2022-07-26T05:58:37.235Z,7.00
2022-07-26T06:01:05.420Z,4.45
2022-07-26T06:03:33.400Z,4.90
2022-07-26T06:06:02.877Z,5.32
2022-07-26T06:08:31.111Z,4.97
2022-07-26T06:10:59.330Z,4.20
2022-07-26T06:13:27.421Z,3.63
2022-07-26T06:15:55.398Z,5.95
2022-07-26T06:18:23.596Z,3.97
2022-07-26T06:20:51.996Z,7.18
2022-07-26T06:23:31.871Z,4.55
2022-07-26T06:26:04.673Z,5.65
2022-07-26T06:28:33.116Z,6.35
2022-07-26T06:31:01.414Z,6.35
2022-07-26T06:33:29.497Z,3.35
2022-07-26T06:35:57.574Z,4.15
2022-07-26T06:38:27.079Z,5.25
2022-07-26T06:40:55.358Z,4.57
2022-07-26T06:43:23.338Z,3.33
2022-07-26T06:45:51.569Z,4.10
2022-07-26T06:48:19.629Z,4.43
2022-07-26T06:50:48.069Z,4.65
2022-07-26T06:53:16.086Z,3.25
2022-07-26T06:55:45.938Z,9.82
2022-07-26T06:58:14.100Z,7.00
2022-07-26T07:00:42.424Z,4.03
2022-07-26T07:03:10.519Z,17.13
2022-07-26T07:05:38.885Z,5.43
2022-07-26T07:08:07.637Z,9.65
2022-07-26T07:10:35.836Z,6.93
2022-07-26T07:13:05.588Z,3.58
2022-07-26T07:15:33.682Z,6.53
2022-07-26T07:18:01.817Z,5.18
2022-07-26T07:20:30.214Z,4.15
2022-07-26T07:22:58.262Z,4.85
2022-07-26T07:25:30.418Z,3.25
2022-07-26T07:27:59.618Z,5.13
2022-07-26T07:30:29.612Z,4.45
2022-07-26T07:32:57.763Z,8.43
2022-07-26T07:35:32.023Z,7.07
2022-07-26T07:38:01.349Z,5.70
2022-07-26T07:40:30.406Z,5.18
2022-07-26T07:43:00.232Z,7.35
2022-07-26T07:45:29.635Z,2.47
2022-07-26T07:47:57.714Z,3.28
2022-07-26T07:50:28.259Z,4.97
2022-07-26T07:52:57.943Z,6.43
2022-07-26T07:55:44.166Z,4.80
2022-07-26T07:58:17.233Z,16.90
2022-07-26T08:00:48.115Z,2.45
2022-07-26T08:03:18.055Z,5.50
2022-07-26T08:05:49.768Z,5.43
2022-07-26T08:08:18.775Z,2.97
2022-07-26T08:10:52.789Z,3.45
2022-07-26T08:13:22.108Z,2.97
2022-07-26T08:15:52.763Z,2.83
2022-07-26T08:18:22.519Z,4.25
2022-07-26T08:20:52.188Z,3.47
2022-07-26T08:23:20.959Z,6.72
2022-07-26T08:25:57.074Z,2.28
2022-07-26T08:28:46.946Z,3.08
2022-07-26T08:31:20.007Z,7.65
2022-07-26T08:33:48.836Z,3.97
2022-07-26T08:36:18.307Z,2.08
2022-07-26T08:38:48.036Z,2.85
2022-07-26T08:41:17.788Z,2.72
2022-07-26T08:43:53.144Z,5.93
2022-07-26T08:46:26.516Z,3.28
2022-07-26T08:48:57.067Z,2.42
2022-07-26T08:51:27.254Z,2.33
2022-07-26T08:54:05.429Z,3.47
2022-07-26T08:56:36.427Z,2.88
2022-07-26T08:59:07.569Z,4.30
2022-07-26T09:01:53.368Z,4.05
2022-07-26T09:04:31.645Z,4.35
2022-07-26T09:07:05.354Z,3.22
2022-07-26T09:09:35.575Z,4.68
2022-07-26T09:12:17.872Z,8.77
2022-07-26T09:14:47.597Z,3.00
2022-07-26T09:17:19.301Z,4.13
2022-07-26T09:20:03.847Z,7.10
2022-07-26T09:22:32.082Z,3.60
2022-07-26T09:25:00.266Z,4.55
2022-07-26T09:27:36.825Z,2.55
2022-07-26T09:30:09.509Z,7.72
2022-07-26T09:32:38.898Z,3.75
2022-07-26T09:35:45.483Z,3.97
2022-07-26T09:38:14.553Z,5.75
2022-07-26T09:40:45.673Z,3.17
2022-07-26T09:43:23.900Z,2.47
2022-07-26T09:46:05.977Z,2.78
2022-07-26T09:49:10.095Z,3.00
2022-07-26T09:51:41.105Z,2.60
2022-07-26T09:54:10.915Z,3.00
2022-07-26T09:56:48.623Z,3.25
2022-07-26T09:59:19.761Z,4.32
2022-07-26T10:01:49.713Z,3.30
2022-07-26T10:04:20.545Z,3.65
2022-07-26T10:06:49.404Z,3.20
2022-07-26T10:09:18.651Z,2.90
2022-07-26T10:11:54.314Z,4.30
2022-07-26T10:14:45.660Z,3.60
2022-07-26T10:17:47.035Z,3.63
2022-07-26T10:20:47.574Z,2.35
2022-07-26T10:23:44.228Z,2.05
2022-07-26T10:26:38.612Z,1.92
2022-07-26T10:29:36.641Z,2.10
2022-07-26T10:32:20.081Z,3.88
2022-07-26T10:34:48.644Z,2.25
2022-07-26T10:37:30.437Z,2.53
2022-07-26T10:40:20.332Z,2.63
2022-07-26T10:42:48.494Z,2.40
2022-07-26T10:45:24.465Z,3.40
2022-07-26T10:48:14.483Z,5.97
2022-07-26T10:50:45.400Z,3.47
2022-07-26T10:53:21.992Z,3.97
2022-07-26T10:55:52.798Z,4.20
2022-07-26T10:58:22.724Z,2.30
2022-07-26T11:00:59.966Z,5.45
2022-07-26T11:03:38.958Z,1.95
2022-07-26T11:06:16.754Z,8.02
2022-07-26T11:08:49.490Z,3.63
2022-07-26T11:11:30.568Z,2.20
2022-07-26T11:14:10.294Z,2.47
2022-07-26T11:16:40.659Z,3.75
2022-07-26T11:19:17.225Z,2.22
2022-07-26T11:21:46.876Z,2.05
2022-07-26T11:24:16.476Z,2.28
2022-07-26T11:26:46.677Z,2.72
2022-07-26T11:29:17.600Z,4.15
2022-07-26T11:31:50.804Z,2.00
2022-07-26T11:34:30.784Z,4.47
2022-07-26T11:37:01.691Z,2.58
2022-07-26T11:39:33.692Z,3.20
2022-07-26T11:42:04.740Z,2.03
2022-07-26T11:44:33.449Z,3.05
2022-07-26T11:47:10.916Z,2.13
2022-07-26T11:50:00.094Z,2.38
2022-07-26T11:52:31.725Z,4.05
2022-07-26T11:55:01.711Z,3.88
2022-07-26T11:57:31.679Z,5.53
2022-07-26T12:00:01.497Z,5.85
2022-07-26T12:02:31.275Z,4.50
2022-07-26T12:05:15.745Z,2.00
2022-07-26T12:07:59.813Z,2.28
2022-07-26T12:10:30.074Z,2.47
2022-07-26T12:13:13.061Z,3.28
2022-07-26T12:15:49.387Z,2.85
2022-07-26T12:18:26.731Z,5.47
2022-07-26T12:21:06.134Z,3.47
2022-07-26T12:23:48.104Z,2.70
2022-07-26T12:26:27.129Z,2.60
2022-07-26T12:28:56.428Z,3.40
2022-07-26T12:31:27.831Z,3.80
2022-07-26T12:33:56.213Z,5.25
2022-07-26T12:36:27.491Z,3.25
2022-07-26T12:38:57.416Z,3.10
2022-07-26T12:41:39.176Z,6.10
2022-07-26T12:44:12.250Z,2.88
2022-07-26T12:46:41.095Z,3.15
2022-07-26T12:49:09.252Z,3.20
2022-07-26T12:51:37.804Z,4.53
2022-07-26T12:54:06.823Z,4.03
2022-07-26T12:56:36.316Z,3.33
2022-07-26T12:59:04.504Z,2.80
2022-07-26T13:01:33.899Z,4.72
2022-07-26T13:04:02.439Z,2.63
2022-07-26T13:06:32.774Z,3.50
2022-07-26T13:09:01.033Z,5.38
2022-07-26T13:11:29.250Z,3.20
2022-07-26T13:13:58.850Z,4.35
2022-07-26T13:16:26.910Z,3.35
2022-07-26T13:18:55.062Z,2.80
2022-07-26T13:21:23.319Z,3.17
2022-07-26T13:23:51.422Z,2.80
2022-07-26T13:26:19.628Z,3.30
2022-07-26T13:28:50.156Z,6.28
2022-07-26T13:31:19.802Z,4.20
2022-07-26T13:33:48.349Z,10.02
2022-07-26T13:36:16.489Z,6.03
2022-07-26T13:38:44.568Z,4.82
2022-07-26T13:41:12.795Z,3.67
2022-07-26T13:43:40.896Z,5.93
2022-07-26T13:46:11.893Z,3.97
2022-07-26T13:48:52.744Z,4.78
2022-07-26T13:51:51.312Z,3.78
2022-07-26T13:54:22.440Z,4.65
2022-07-26T13:56:51.345Z,4.68
2022-07-26T13:59:19.465Z,6.28
2022-07-26T14:01:47.896Z,5.50
2022-07-26T14:04:17.498Z,3.60
2022-07-26T14:06:46.052Z,3.47
2022-07-26T14:09:14.807Z,6.68
2022-07-26T14:11:43.477Z,6.68
2022-07-26T14:14:12.143Z,3.22
2022-07-26T14:16:40.769Z,4.03
2022-07-26T14:19:08.914Z,3.05
2022-07-26T14:21:47.472Z,4.05
2022-07-26T14:24:27.050Z,5.00
2022-07-26T14:26:58.814Z,3.00
2022-07-26T14:29:28.458Z,2.92
2022-07-26T14:31:56.693Z,3.50
2022-07-26T14:34:24.786Z,4.32
2022-07-26T14:36:54.191Z,2.90
2022-07-26T14:39:22.222Z,3.05
2022-07-26T14:41:50.358Z,3.47
2022-07-26T14:44:18.491Z,5.10
2022-07-26T14:46:46.548Z,4.53
2022-07-26T14:49:14.800Z,3.50
2022-07-26T14:51:42.820Z,3.80
2022-07-26T14:54:14.718Z,2.97
2022-07-26T14:56:42.902Z,3.08
2022-07-26T14:59:10.905Z,4.03
2022-07-26T15:01:38.977Z,2.72
2022-07-26T15:04:07.084Z,5.40
2022-07-26T15:06:35.128Z,3.75
2022-07-26T15:09:03.198Z,3.53
2022-07-26T15:11:32.689Z,2.55
2022-07-26T15:14:05.697Z,5.60
2022-07-26T15:16:34.320Z,2.92
2022-07-26T15:19:02.569Z,4.38
2022-07-26T15:21:30.721Z,3.63
2022-07-26T15:23:58.890Z,3.40
2022-07-26T15:26:27.053Z,4.30
2022-07-26T15:28:56.514Z,3.58
2022-07-26T15:31:37.603Z,3.00
2022-07-26T15:34:08.752Z,2.97
2022-07-26T15:36:37.289Z,2.20
2022-07-26T15:39:16.698Z,3.67
2022-07-26T15:41:46.366Z,2.45
2022-07-26T15:44:17.569Z,1.98
2022-07-26T15:46:48.016Z,2.75
2022-07-26T15:49:18.332Z,3.08
2022-07-26T15:51:46.579Z,6.32
2022-07-26T15:54:16.578Z,2.47
2022-07-26T15:56:45.210Z,2.17
2022-07-26T15:59:14.826Z,3.03
2022-07-26T16:01:43.305Z,2.88
2022-07-26T16:04:11.918Z,2.88
2022-07-26T16:06:40.817Z,2.00
2022-07-26T16:09:18.227Z,2.97
2022-07-26T16:11:47.333Z,3.58
2022-07-26T16:14:17.621Z,2.33
2022-07-26T16:16:46.165Z,5.10
2022-07-26T16:19:14.888Z,2.42
2022-07-26T16:21:43.341Z,2.63
2022-07-26T16:24:11.413Z,4.55
2022-07-26T16:26:39.828Z,2.90
2022-07-26T16:29:08.191Z,2.55
2022-07-26T16:31:38.180Z,2.20
2022-07-26T16:34:06.292Z,3.55
2022-07-26T16:36:34.508Z,3.08
2022-07-26T16:39:02.666Z,2.58
2022-07-26T16:41:31.224Z,3.03
2022-07-26T16:43:59.337Z,3.28
2022-07-26T16:46:28.069Z,2.20
2022-07-26T16:48:57.590Z,2.38
2022-07-26T16:51:25.877Z,2.45
2022-07-26T16:53:55.077Z,3.20
2022-07-26T16:56:23.208Z,2.88
2022-07-26T16:58:51.336Z,2.47
2022-07-26T17:01:19.379Z,3.28
2022-07-26T17:03:47.571Z,2.42
2022-07-26T17:06:17.026Z,3.05
2022-07-26T17:08:45.163Z,2.47
2022-07-26T17:11:13.231Z,2.70
2022-07-26T17:13:41.293Z,3.38
2022-07-26T17:16:09.417Z,2.25
2022-07-26T17:18:37.571Z,2.60
2022-07-26T17:21:05.722Z,2.92
2022-07-26T17:23:36.343Z,2.40
2022-07-26T17:26:04.476Z,2.00
2022-07-26T17:28:32.668Z,2.70
2022-07-26T17:31:00.758Z,3.22
2022-07-26T17:33:28.975Z,2.95
2022-07-26T17:35:57.385Z,2.58
2022-07-26T17:38:30.434Z,2.40
2022-07-26T17:40:59.899Z,2.28
2022-07-26T17:43:37.054Z,2.42
2022-07-26T17:46:05.876Z,3.05
2022-07-26T17:48:34.354Z,2.10
2022-07-26T17:51:02.730Z,4.15
2022-07-26T17:53:31.696Z,2.13
2022-07-26T17:56:04.617Z,2.88
2022-07-26T17:58:32.768Z,2.35
2022-07-26T18:01:00.911Z,2.17
2022-07-26T18:03:29.081Z,2.25
2022-07-26T18:05:57.387Z,1.42
2022-07-26T18:08:27.084Z,2.70
2022-07-26T18:10:56.223Z,1.20
2022-07-26T18:13:26.870Z,1.40
2022-07-26T18:15:55.466Z,0.95
2022-07-26T18:18:23.692Z,1.77
2022-07-26T18:20:52.386Z,1.20
2022-07-26T18:23:20.701Z,1.08
2022-07-26T18:25:48.810Z,0.95
2022-07-26T18:28:16.949Z,2.05
2022-07-26T18:30:46.361Z,1.23
2022-07-26T18:33:14.422Z,1.45
2022-07-26T18:35:42.900Z,1.95
2022-07-26T18:38:10.933Z,2.17
2022-07-26T18:40:39.187Z,1.40
2022-07-26T18:43:07.231Z,2.20
2022-07-26T18:45:35.326Z,1.35
2022-07-26T18:48:05.004Z,2.15
2022-07-26T18:50:33.251Z,1.55
2022-07-26T18:53:02.993Z,1.13
2022-07-26T18:55:30.971Z,1.60
2022-07-26T18:58:03.203Z,1.73
2022-07-26T19:00:34.356Z,1.10
2022-07-26T19:03:03.686Z,1.65
2022-07-26T19:05:35.304Z,2.05
2022-07-26T19:08:04.850Z,1.80
2022-07-26T19:10:32.884Z,1.75
2022-07-26T19:13:00.919Z,1.17
2022-07-26T19:15:31.127Z,1.40
2022-07-26T19:17:59.494Z,1.25
2022-07-26T19:20:28.933Z,1.70
2022-07-26T19:22:56.909Z,0.90
2022-07-26T19:25:24.920Z,1.13
2022-07-26T19:27:52.974Z,2.45
2022-07-26T19:30:21.017Z,2.38
2022-07-26T19:32:49.086Z,2.25
2022-07-26T19:35:17.154Z,1.13
2022-07-26T19:37:47.150Z,1.50
2022-07-26T19:40:15.489Z,1.88
2022-07-26T19:42:43.613Z,1.80
2022-07-26T19:45:12.789Z,3.20
2022-07-26T19:47:41.075Z,1.73
2022-07-26T19:50:11.804Z,2.40
2022-07-26T19:52:41.189Z,2.38
2022-07-26T19:55:11.431Z,1.38
2022-07-26T19:57:40.006Z,1.30
2022-07-26T20:00:10.823Z,1.92
2022-07-26T20:02:40.913Z,2.67
2022-07-26T20:05:10.951Z,1.30
2022-07-26T20:07:39.195Z,1.45
2022-07-26T20:10:10.547Z,2.25
2022-07-26T20:12:38.852Z,1.45
2022-07-26T20:15:09.126Z,1.35
2022-07-26T20:17:39.633Z,1.35
2022-07-26T20:20:10.074Z,1.65
2022-07-26T20:22:38.275Z,4.10
2022-07-26T20:25:07.992Z,3.45
2022-07-26T20:27:37.469Z,1.25
2022-07-26T20:30:08.122Z,1.67
2022-07-26T20:32:36.453Z,1.73
2022-07-26T20:35:05.060Z,1.70
2022-07-26T20:37:33.070Z,1.35
2022-07-26T20:40:01.143Z,3.42
2022-07-26T20:42:29.305Z,2.55
2022-07-26T20:44:58.771Z,1.90
2022-07-26T20:47:26.862Z,2.88
2022-07-26T20:49:58.402Z,1.17
2022-07-26T20:52:29.115Z,2.28
2022-07-26T20:54:57.075Z,2.55
2022-07-26T20:57:25.069Z,2.05
2022-07-26T20:59:53.072Z,1.70
2022-07-26T21:02:22.515Z,1.40
2022-07-26T21:04:50.616Z,2.15
2022-07-26T21:07:18.718Z,1.52
2022-07-26T21:09:46.751Z,2.75
2022-07-26T21:12:14.720Z,1.75
2022-07-26T21:14:42.790Z,2.63
2022-07-26T21:17:12.095Z,1.70
2022-07-26T21:19:41.857Z,2.20
2022-07-26T21:22:10.140Z,2.15
2022-07-26T21:24:38.356Z,1.60
2022-07-26T21:27:07.108Z,2.90
2022-07-26T21:29:38.070Z,2.35
2022-07-26T21:32:07.948Z,2.28
2022-07-26T21:34:36.043Z,2.05
2022-07-26T21:37:06.172Z,2.92
2022-07-26T21:39:34.253Z,1.65
2022-07-26T21:42:02.284Z,2.15
2022-07-26T21:44:30.366Z,2.90
2022-07-26T21:46:58.377Z,2.15
2022-07-26T21:49:27.647Z,1.30
2022-07-26T21:51:55.638Z,1.98
2022-07-26T21:54:25.273Z,3.30
2022-07-26T21:56:53.910Z,1.90
2022-07-26T21:59:21.922Z,1.48
2022-07-26T22:01:49.998Z,3.03
2022-07-26T22:04:18.103Z,2.83
2022-07-26T22:06:46.325Z,2.75
2022-07-26T22:09:14.847Z,4.47
2022-07-26T22:11:44.463Z,1.83
2022-07-26T22:14:12.486Z,2.00
2022-07-26T22:16:40.577Z,1.77
2022-07-26T22:19:09.082Z,4.55
2022-07-26T22:21:37.394Z,1.63
2022-07-26T22:24:06.383Z,4.22
2022-07-26T22:26:34.642Z,2.03
2022-07-26T22:29:04.661Z,3.08
2022-07-26T22:31:33.548Z,1.25
2022-07-26T22:34:01.732Z,2.63
2022-07-26T22:36:29.821Z,4.95
2022-07-26T22:38:57.900Z,2.90
2022-07-26T22:41:25.939Z,2.25
2022-07-26T22:44:00.066Z,1.00
2022-07-26T22:46:29.809Z,2.90
2022-07-26T22:48:57.987Z,1.45
2022-07-26T22:51:26.051Z,2.55
2022-07-26T22:53:54.140Z,1.88
2022-07-26T22:56:22.377Z,2.15
2022-07-26T22:58:50.499Z,2.88
2022-07-26T23:01:18.801Z,2.83
2022-07-26T23:03:49.738Z,3.15
2022-07-26T23:06:31.664Z,3.00
2022-07-26T23:09:00.496Z,4.30
2022-07-26T23:11:28.659Z,2.42
2022-07-26T23:14:00.013Z,2.65
2022-07-26T23:16:28.186Z,3.53
2022-07-26T23:18:58.271Z,3.00
2022-07-26T23:21:27.630Z,2.10
2022-07-26T23:23:55.719Z,3.92
2022-07-26T23:26:23.844Z,2.45
2022-07-26T23:28:52.697Z,3.33
2022-07-26T23:31:20.834Z,4.88
2022-07-26T23:33:52.813Z,1.92
2022-07-26T23:36:24.903Z,3.30
2022-07-26T23:38:54.123Z,2.65
2022-07-26T23:41:23.055Z,1.98
2022-07-26T23:43:51.889Z,1.70
2022-07-26T23:46:20.172Z,4.35
2022-07-26T23:48:48.581Z,2.67
2022-07-26T23:51:16.826Z,2.35
2022-07-26T23:53:46.676Z,2.28
2022-07-26T23:56:15.379Z,4.85
2022-07-26T23:58:44.490Z,4.10
